createdAt,value
2022-09-15T00:00:27.330Z,85.40
2022-09-15T00:01:27.367Z,85.20
2022-09-15T00:02:27.409Z,85.20
2022-09-15T00:03:27.284Z,85.30
2022-09-15T00:04:27.305Z,84.80
2022-09-15T00:05:27.264Z,85.00
2022-09-15T00:06:27.257Z,85.00
2022-09-15T00:07:27.246Z,84.89
2022-09-15T00:08:27.236Z,84.49
2022-09-15T00:09:27.223Z,84.69
2022-09-15T00:10:27.253Z,84.49
2022-09-15T00:11:27.209Z,84.09
2022-09-15T00:12:27.183Z,84.19
2022-09-15T00:13:27.185Z,84.19
2022-09-15T00:14:27.163Z,83.69
2022-09-15T00:15:27.165Z,83.79
2022-09-15T00:16:27.223Z,83.59
2022-09-15T00:17:27.142Z,83.59
2022-09-15T00:18:27.113Z,83.39
2022-09-15T00:19:27.104Z,83.48
2022-09-15T00:20:27.102Z,83.65
2022-09-15T00:21:27.075Z,83.45
2022-09-15T00:22:27.107Z,83.45
2022-09-15T00:23:27.062Z,83.28
2022-09-15T00:24:27.053Z,83.34
2022-09-15T00:25:27.041Z,83.04
2022-09-15T00:26:27.022Z,83.04
2022-09-15T00:27:27.023Z,82.84
2022-09-15T00:28:27.013Z,82.54
2022-09-15T00:29:26.991Z,82.44
2022-09-15T00:30:27.086Z,82.64
2022-09-15T00:31:27.024Z,82.64
2022-09-15T00:32:26.962Z,82.04
2022-09-15T00:33:26.950Z,82.44
2022-09-15T00:34:26.941Z,81.73
2022-09-15T00:35:26.922Z,81.93
2022-09-15T00:36:26.911Z,81.63
2022-09-15T00:37:26.921Z,81.43
2022-09-15T00:38:26.887Z,81.13
2022-09-15T00:39:26.902Z,81.03
2022-09-15T00:40:26.912Z,80.83
2022-09-15T00:41:26.860Z,80.93
2022-09-15T00:42:26.841Z,80.79
2022-09-15T00:43:26.831Z,80.58
2022-09-15T00:44:26.875Z,80.69
2022-09-15T00:45:26.895Z,80.39
2022-09-15T00:46:26.802Z,80.39
2022-09-15T00:47:26.781Z,80.29
2022-09-15T00:48:26.771Z,80.08
2022-09-15T00:49:26.793Z,80.08
2022-09-15T00:50:26.768Z,80.19
2022-09-15T00:51:26.770Z,80.29
2022-09-15T00:52:26.738Z,80.08
2022-09-15T00:53:26.721Z,79.99
2022-09-15T00:54:26.711Z,80.08
2022-09-15T00:55:26.743Z,80.29
2022-09-15T00:56:26.690Z,80.39
2022-09-15T00:57:26.691Z,80.08
2022-09-15T00:58:26.681Z,80.08
2022-09-15T00:59:26.661Z,80.29
2022-09-15T01:00:26.642Z,80.08
2022-09-15T01:01:26.730Z,80.29
2022-09-15T01:02:26.691Z,80.29
2022-09-15T01:03:26.658Z,80.19
2022-09-15T01:04:26.591Z,80.29
2022-09-15T01:05:26.600Z,80.29
2022-09-15T01:06:26.573Z,80.49
2022-09-15T01:07:26.563Z,80.49
2022-09-15T01:08:26.583Z,80.39
2022-09-15T01:09:26.537Z,80.49
2022-09-15T01:10:26.530Z,80.58
2022-09-15T01:11:26.518Z,80.69
2022-09-15T01:12:26.526Z,80.39
2022-09-15T01:13:26.499Z,80.39
2022-09-15T01:14:26.498Z,80.58
2022-09-15T01:15:26.478Z,80.69
2022-09-15T01:16:26.516Z,80.89
2022-09-15T01:17:26.453Z,80.93
2022-09-15T01:18:26.465Z,80.89
2022-09-15T01:19:26.445Z,80.83
2022-09-15T01:20:26.407Z,80.73
2022-09-15T01:21:26.409Z,80.52
2022-09-15T01:22:26.388Z,80.22
2022-09-15T01:23:26.387Z,80.32
2022-09-15T01:24:26.380Z,80.32
2022-09-15T01:25:26.375Z,80.32
2022-09-15T01:26:26.357Z,80.32
2022-09-15T01:27:41.590Z,80.32
2022-09-15T01:28:27.335Z,80.12
2022-09-15T01:29:26.324Z,80.12
2022-09-15T01:30:26.325Z,79.92
2022-09-15T01:31:26.363Z,79.92
2022-09-15T01:32:26.289Z,80.02
2022-09-15T01:33:26.275Z,80.22
2022-09-15T01:34:26.305Z,80.22
2022-09-15T01:35:26.266Z,80.32
2022-09-15T01:36:26.229Z,80.02
2022-09-15T01:37:26.228Z,80.43
2022-09-15T01:38:26.217Z,80.32
2022-09-15T01:39:26.209Z,80.32
2022-09-15T01:40:26.260Z,80.12
2022-09-15T01:41:26.189Z,80.02
2022-09-15T01:42:26.166Z,80.12
2022-09-15T01:43:26.159Z,80.12
2022-09-15T01:44:26.149Z,80.22
2022-09-15T01:45:26.160Z,80.22
2022-09-15T01:46:26.127Z,79.92
2022-09-15T01:47:26.117Z,80.02
2022-09-15T01:48:26.095Z,79.92
2022-09-15T01:49:26.090Z,80.02
2022-09-15T01:50:26.076Z,80.02
2022-09-15T01:51:26.076Z,80.32
2022-09-15T01:52:26.057Z,80.22
2022-09-15T01:53:26.079Z,79.72
2022-09-15T01:54:26.036Z,79.92
2022-09-15T01:55:26.056Z,79.92
2022-09-15T01:56:26.016Z,79.82
2022-09-15T01:57:26.006Z,79.72
2022-09-15T01:58:26.014Z,79.42
2022-09-15T01:59:25.986Z,79.62
2022-09-15T02:00:25.965Z,79.62
2022-09-15T02:01:26.017Z,79.62
2022-09-15T02:02:33.530Z,79.62
2022-09-15T02:03:25.932Z,79.52
2022-09-15T02:04:25.922Z,79.62
2022-09-15T02:05:25.912Z,79.82
2022-09-15T02:06:25.894Z,79.72
2022-09-15T02:07:25.894Z,79.62
2022-09-15T02:08:25.915Z,79.46
2022-09-15T02:09:25.861Z,79.86
2022-09-15T02:10:25.852Z,79.76
2022-09-15T02:11:25.869Z,79.56
2022-09-15T02:12:25.841Z,79.16
2022-09-15T02:13:25.835Z,79.42
2022-09-15T02:14:25.814Z,79.62
2022-09-15T02:15:25.822Z,79.32
2022-09-15T02:16:25.838Z,79.22
2022-09-15T02:17:25.801Z,79.22
2022-09-15T02:18:25.759Z,79.11
2022-09-15T02:19:25.764Z,79.22
2022-09-15T02:20:25.749Z,79.32
2022-09-15T02:21:25.733Z,79.22
2022-09-15T02:22:25.733Z,79.02
2022-09-15T02:23:25.711Z,79.11
2022-09-15T02:24:25.702Z,79.11
2022-09-15T02:25:25.683Z,79.22
2022-09-15T02:26:25.679Z,79.16
2022-09-15T02:27:25.661Z,79.52
2022-09-15T02:28:25.696Z,79.46
2022-09-15T02:29:25.642Z,79.56
2022-09-15T02:30:25.623Z,79.25
2022-09-15T02:31:25.696Z,79.46
2022-09-15T02:32:25.621Z,79.66
2022-09-15T02:33:25.602Z,79.36
2022-09-15T02:34:25.602Z,79.16
2022-09-15T02:35:25.572Z,79.25
2022-09-15T02:36:25.552Z,79.05
2022-09-15T02:37:25.544Z,79.16
2022-09-15T02:38:25.552Z,79.46
2022-09-15T02:39:25.540Z,79.36
2022-09-15T02:40:25.626Z,78.85
2022-09-15T02:41:25.524Z,79.56
2022-09-15T02:42:25.484Z,79.46
2022-09-15T02:43:25.502Z,79.16
2022-09-15T02:44:25.471Z,78.85
2022-09-15T02:45:25.531Z,79.05
2022-09-15T02:46:25.439Z,79.16
2022-09-15T02:47:25.445Z,79.05
2022-09-15T02:48:25.420Z,78.96
2022-09-15T02:49:25.483Z,79.16
2022-09-15T02:50:25.390Z,79.05
2022-09-15T02:51:25.390Z,78.85
2022-09-15T02:52:25.379Z,79.16
2022-09-15T02:53:25.370Z,79.05
2022-09-15T02:54:25.345Z,78.96
2022-09-15T02:55:25.340Z,78.96
2022-09-15T02:56:25.339Z,78.96
2022-09-15T02:57:25.348Z,78.96
2022-09-15T02:58:25.308Z,78.85
2022-09-15T02:59:25.299Z,78.96
2022-09-15T03:00:25.289Z,78.59
2022-09-15T03:01:25.299Z,78.79
2022-09-15T03:02:25.358Z,78.45
2022-09-15T03:03:25.249Z,78.28
2022-09-15T03:04:25.228Z,78.15
2022-09-15T03:05:25.229Z,77.95
2022-09-15T03:06:25.212Z,77.55
2022-09-15T03:07:25.209Z,78.05
2022-09-15T03:08:25.188Z,77.84
2022-09-15T03:09:25.188Z,77.84
2022-09-15T03:10:25.161Z,77.64
2022-09-15T03:11:25.191Z,77.95
2022-09-15T03:12:25.156Z,77.95
2022-09-15T03:13:25.137Z,77.95
2022-09-15T03:14:25.131Z,78.15
2022-09-15T03:15:25.107Z,78.25
2022-09-15T03:16:25.182Z,78.35
2022-09-15T03:17:25.130Z,78.45
2022-09-15T03:18:25.069Z,78.45
2022-09-15T03:19:25.076Z,78.35
2022-09-15T03:20:25.071Z,78.15
2022-09-15T03:21:25.038Z,78.35
2022-09-15T03:22:25.040Z,78.15
2022-09-15T03:23:25.019Z,78.55
2022-09-15T03:24:25.006Z,78.55
2022-09-15T03:25:25.028Z,78.65
2022-09-15T03:26:24.986Z,78.15
2022-09-15T03:27:24.994Z,78.25
2022-09-15T03:28:24.965Z,78.25
2022-09-15T03:29:24.947Z,78.45
2022-09-15T03:30:24.948Z,78.65
2022-09-15T03:31:25.002Z,78.75
2022-09-15T03:32:24.914Z,78.45
2022-09-15T03:33:24.905Z,78.35
2022-09-15T03:34:24.900Z,78.45
2022-09-15T03:35:24.887Z,78.65
2022-09-15T03:36:24.897Z,78.45
2022-09-15T03:37:24.875Z,78.65
2022-09-15T03:38:24.887Z,78.75
2022-09-15T03:39:24.835Z,78.55
2022-09-15T03:40:24.916Z,78.85
2022-09-15T03:41:24.822Z,79.05
2022-09-15T03:42:24.835Z,78.85
2022-09-15T03:43:24.792Z,78.85
2022-09-15T03:44:24.820Z,78.45
2022-09-15T03:45:24.814Z,78.65
2022-09-15T03:46:24.764Z,78.75
2022-09-15T03:47:24.743Z,78.75
2022-09-15T03:48:24.745Z,78.75
2022-09-15T03:49:24.716Z,78.65
2022-09-15T03:50:24.715Z,78.65
2022-09-15T03:51:24.733Z,78.99
2022-09-15T03:52:24.696Z,78.85
2022-09-15T03:53:24.679Z,78.79
2022-09-15T03:54:24.707Z,78.69
2022-09-15T03:55:24.656Z,78.79
2022-09-15T03:56:24.654Z,78.79
2022-09-15T03:57:24.644Z,78.89
2022-09-15T03:58:26.839Z,79.09
2022-09-15T03:59:25.620Z,79.19
2022-09-15T04:00:24.604Z,79.19
2022-09-15T04:01:24.585Z,78.89
2022-09-15T04:02:24.632Z,78.89
2022-09-15T04:03:24.601Z,78.79
2022-09-15T04:04:24.564Z,78.28
2022-09-15T04:05:24.553Z,78.59
2022-09-15T04:06:24.544Z,78.59
2022-09-15T04:07:24.523Z,79.19
2022-09-15T04:08:24.537Z,79.09
2022-09-15T04:09:24.510Z,79.19
2022-09-15T04:10:24.495Z,78.89
2022-09-15T04:11:24.474Z,78.69
2022-09-15T04:12:24.475Z,78.49
2022-09-15T04:13:28.463Z,78.39
2022-09-15T04:14:24.455Z,78.59
2022-09-15T04:15:24.426Z,78.28
2022-09-15T04:16:24.544Z,78.19
2022-09-15T04:17:24.464Z,78.08
2022-09-15T04:18:24.399Z,78.39
2022-09-15T04:19:24.392Z,77.98
2022-09-15T04:20:24.383Z,78.08
2022-09-15T04:21:24.430Z,77.88
2022-09-15T04:22:24.355Z,77.68
2022-09-15T04:23:24.336Z,77.48
2022-09-15T04:24:24.352Z,77.48
2022-09-15T04:25:24.321Z,77.78
2022-09-15T04:26:24.313Z,77.68
2022-09-15T04:27:24.297Z,77.88
2022-09-15T04:28:24.291Z,77.98
2022-09-15T04:29:24.271Z,77.58
2022-09-15T04:30:24.274Z,77.78
2022-09-15T04:31:24.320Z,77.58
2022-09-15T04:32:24.245Z,77.68
2022-09-15T04:33:24.239Z,77.78
2022-09-15T04:34:24.213Z,77.68
2022-09-15T04:35:24.248Z,77.68
2022-09-15T04:36:24.192Z,77.98
2022-09-15T04:37:24.185Z,77.58
2022-09-15T04:38:24.172Z,77.68
2022-09-15T04:39:24.176Z,77.88
2022-09-15T04:40:24.272Z,77.88
2022-09-15T04:41:24.151Z,77.38
2022-09-15T04:42:24.122Z,77.58
2022-09-15T04:43:24.113Z,77.68
2022-09-15T04:44:24.130Z,77.48
2022-09-15T04:45:24.091Z,77.88
2022-09-15T04:46:24.146Z,77.88
2022-09-15T04:47:24.090Z,77.88
2022-09-15T04:48:24.055Z,77.68
2022-09-15T04:49:24.040Z,77.48
2022-09-15T04:50:24.060Z,77.58
2022-09-15T04:51:24.018Z,77.17
2022-09-15T04:52:24.010Z,77.38
2022-09-15T04:53:24.009Z,77.78
2022-09-15T04:54:24.031Z,77.58
2022-09-15T04:55:23.971Z,77.68
2022-09-15T04:56:23.972Z,77.38
2022-09-15T04:57:23.954Z,77.17
2022-09-15T04:58:23.951Z,77.17
2022-09-15T04:59:23.929Z,77.58
2022-09-15T05:00:23.930Z,77.38
2022-09-15T05:01:24.013Z,77.17
2022-09-15T05:02:23.955Z,77.08
2022-09-15T05:03:23.887Z,77.17
2022-09-15T05:04:23.908Z,77.28
2022-09-15T05:05:23.877Z,77.38
2022-09-15T05:06:23.848Z,77.17
2022-09-15T05:07:23.869Z,77.28
2022-09-15T05:08:23.840Z,77.28
2022-09-15T05:09:23.828Z,77.48
2022-09-15T05:10:23.822Z,77.28
2022-09-15T05:11:23.800Z,77.38
2022-09-15T05:12:23.778Z,77.58
2022-09-15T05:13:23.780Z,77.28
2022-09-15T05:14:23.778Z,77.38
2022-09-15T05:15:23.769Z,77.38
2022-09-15T05:16:23.860Z,77.68
2022-09-15T05:17:26.683Z,77.38
2022-09-15T05:18:23.718Z,77.58
2022-09-15T05:19:23.737Z,77.88
2022-09-15T05:20:23.689Z,77.78
2022-09-15T05:21:23.699Z,77.28
2022-09-15T05:22:23.667Z,77.68
2022-09-15T05:23:23.678Z,77.98
2022-09-15T05:24:23.661Z,77.88
2022-09-15T05:25:23.638Z,77.38
2022-09-15T05:26:23.655Z,77.48
2022-09-15T05:27:23.619Z,77.68
2022-09-15T05:28:23.608Z,77.98
2022-09-15T05:29:23.606Z,77.88
2022-09-15T05:30:37.864Z,77.48
2022-09-15T05:31:24.636Z,77.88
2022-09-15T05:32:23.558Z,77.78
2022-09-15T05:33:23.556Z,77.88
2022-09-15T05:34:23.535Z,77.88
2022-09-15T05:35:23.526Z,77.58
2022-09-15T05:36:23.506Z,77.98
2022-09-15T05:37:23.569Z,77.98
2022-09-15T05:38:23.495Z,77.78
2022-09-15T05:39:23.487Z,78.08
2022-09-15T05:40:23.592Z,78.39
2022-09-15T05:41:23.485Z,78.19
2022-09-15T05:42:23.445Z,77.78
2022-09-15T05:43:23.456Z,77.88
2022-09-15T05:44:23.425Z,77.88
2022-09-15T05:45:23.445Z,77.98
2022-09-15T05:46:23.460Z,78.28
2022-09-15T05:47:23.396Z,78.28
2022-09-15T05:48:23.384Z,78.08
2022-09-15T05:49:23.366Z,78.08
2022-09-15T05:50:23.355Z,78.28
2022-09-15T05:51:23.356Z,78.39
2022-09-15T05:52:23.346Z,78.19
2022-09-15T05:53:23.401Z,78.08
2022-09-15T05:54:23.317Z,78.08
2022-09-15T05:55:23.336Z,78.28
2022-09-15T05:56:23.337Z,77.98
2022-09-15T05:57:23.284Z,78.39
2022-09-15T05:58:23.274Z,78.28
2022-09-15T05:59:23.370Z,78.39
2022-09-15T06:00:23.245Z,78.19
2022-09-15T06:01:23.357Z,77.68
2022-09-15T06:02:23.261Z,78.08
2022-09-15T06:03:24.491Z,78.19
2022-09-15T06:04:23.193Z,78.19
2022-09-15T06:05:23.224Z,78.08
2022-09-15T06:06:23.232Z,77.88
2022-09-15T06:07:23.165Z,78.08
2022-09-15T06:08:23.167Z,78.28
2022-09-15T06:09:23.174Z,78.69
2022-09-15T06:10:23.133Z,78.99
2022-09-15T06:11:23.116Z,79.29
2022-09-15T06:12:23.112Z,79.29
2022-09-15T06:13:23.111Z,79.39
2022-09-15T06:14:23.094Z,80.40
2022-09-15T06:15:23.117Z,81.21
2022-09-15T06:16:23.138Z,81.24
2022-09-15T06:17:23.068Z,81.95
2022-09-15T06:18:23.045Z,82.56
2022-09-15T06:19:23.042Z,82.65
2022-09-15T06:20:23.065Z,82.35
2022-09-15T06:21:23.014Z,83.00
2022-09-15T06:22:22.993Z,83.40
2022-09-15T06:23:22.992Z,83.30
2022-09-15T06:24:22.971Z,82.70
2022-09-15T06:25:22.980Z,83.00
2022-09-15T06:26:22.963Z,82.59
2022-09-15T06:27:22.933Z,83.60
2022-09-15T06:28:22.927Z,83.30
2022-09-15T06:29:22.917Z,83.70
2022-09-15T06:30:22.902Z,83.80
2022-09-15T06:31:22.975Z,83.24
2022-09-15T06:32:22.872Z,83.40
2022-09-15T06:33:22.867Z,83.84
2022-09-15T06:34:22.862Z,84.61
2022-09-15T06:35:22.851Z,85.56
2022-09-15T06:36:22.831Z,85.86
2022-09-15T06:37:22.852Z,85.96
2022-09-15T06:38:22.851Z,86.27
2022-09-15T06:39:22.802Z,86.57
2022-09-15T06:40:22.846Z,86.77
2022-09-15T06:41:22.770Z,86.81
2022-09-15T06:42:22.770Z,87.21
2022-09-15T06:43:22.752Z,87.01
2022-09-15T06:44:22.760Z,86.81
2022-09-15T06:45:22.720Z,85.80
2022-09-15T06:46:22.749Z,85.70
2022-09-15T06:47:22.709Z,86.00
2022-09-15T06:48:25.153Z,85.70
2022-09-15T06:49:22.712Z,86.30
2022-09-15T06:50:22.691Z,85.30
2022-09-15T06:51:22.660Z,85.25
2022-09-15T06:52:22.650Z,84.95
2022-09-15T06:53:22.643Z,84.45
2022-09-15T06:54:22.629Z,84.75
2022-09-15T06:55:22.620Z,83.74
2022-09-15T06:56:22.598Z,83.95
2022-09-15T06:57:22.597Z,84.05
2022-09-15T06:58:22.569Z,84.25
2022-09-15T06:59:22.592Z,84.41
2022-09-15T07:00:22.570Z,84.21
2022-09-15T07:01:22.588Z,83.10
2022-09-15T07:02:22.698Z,83.20
2022-09-15T07:03:22.647Z,83.00
2022-09-15T07:04:22.508Z,82.90
2022-09-15T07:05:22.641Z,83.30
2022-09-15T07:06:22.487Z,83.10
2022-09-15T07:07:22.484Z,82.45
2022-09-15T07:08:22.480Z,82.76
2022-09-15T07:09:22.448Z,82.76
2022-09-15T07:10:22.438Z,82.15
2022-09-15T07:11:22.439Z,82.35
2022-09-15T07:12:22.418Z,81.75
2022-09-15T07:13:22.413Z,81.24
2022-09-15T07:14:22.407Z,81.51
2022-09-15T07:15:22.398Z,81.61
2022-09-15T07:16:22.414Z,81.21
2022-09-15T07:17:22.369Z,81.21
2022-09-15T07:18:22.358Z,81.30
2022-09-15T07:19:22.374Z,81.10
2022-09-15T07:20:22.327Z,80.77
2022-09-15T07:21:22.347Z,80.57
2022-09-15T07:22:22.410Z,80.26
2022-09-15T07:23:22.288Z,80.66
2022-09-15T07:24:22.288Z,80.57
2022-09-15T07:25:22.286Z,80.57
2022-09-15T07:26:22.264Z,81.17
2022-09-15T07:27:22.268Z,79.86
2022-09-15T07:28:22.253Z,81.27
2022-09-15T07:29:22.227Z,79.46
2022-09-15T07:30:22.215Z,79.86
2022-09-15T07:31:22.248Z,79.16
2022-09-15T07:32:22.217Z,79.96
2022-09-15T07:33:22.176Z,79.76
2022-09-15T07:34:22.177Z,80.57
2022-09-15T07:35:22.158Z,80.26
2022-09-15T07:36:22.146Z,80.16
2022-09-15T07:37:22.136Z,79.46
2022-09-15T07:38:22.145Z,79.96
2022-09-15T07:39:22.105Z,79.76
2022-09-15T07:40:22.151Z,79.82
2022-09-15T07:41:22.075Z,79.52
2022-09-15T07:42:22.076Z,79.42
2022-09-15T07:43:22.065Z,79.52
2022-09-15T07:44:30.319Z,79.22
2022-09-15T07:45:22.057Z,79.42
2022-09-15T07:46:22.044Z,78.71
2022-09-15T07:47:22.018Z,79.32
2022-09-15T07:48:26.237Z,79.72
2022-09-15T07:49:22.008Z,79.48
2022-09-15T07:50:21.988Z,77.67
2022-09-15T07:51:21.977Z,77.97
2022-09-15T07:52:21.979Z,78.17
2022-09-15T07:53:21.949Z,78.38
2022-09-15T07:54:23.057Z,78.07
2022-09-15T07:55:21.950Z,78.17
2022-09-15T07:56:21.915Z,78.03
2022-09-15T07:57:21.907Z,78.14
2022-09-15T07:58:21.908Z,77.43
2022-09-15T07:59:21.887Z,76.73
2022-09-15T08:00:21.945Z,77.33
2022-09-15T08:01:21.929Z,77.03
2022-09-15T08:02:21.910Z,77.23
2022-09-15T08:03:21.849Z,77.83
2022-09-15T08:04:21.856Z,77.03
2022-09-15T08:05:22.808Z,77.13
2022-09-15T08:06:21.820Z,76.89
2022-09-15T08:07:21.807Z,77.00
2022-09-15T08:08:21.781Z,76.19
2022-09-15T08:09:21.855Z,75.99
2022-09-15T08:10:21.803Z,76.09
2022-09-15T08:11:21.779Z,76.29
2022-09-15T08:12:21.736Z,76.19
2022-09-15T08:13:21.724Z,75.29
2022-09-15T08:14:21.719Z,75.79
2022-09-15T08:15:21.705Z,76.39
2022-09-15T08:16:21.776Z,76.29
2022-09-15T08:17:21.690Z,75.99
2022-09-15T08:18:21.671Z,75.75
2022-09-15T08:19:21.667Z,75.45
2022-09-15T08:20:21.722Z,74.74
2022-09-15T08:21:21.658Z,75.35
2022-09-15T08:22:21.636Z,75.65
2022-09-15T08:23:21.607Z,75.45
2022-09-15T08:24:21.596Z,75.25
2022-09-15T08:25:21.593Z,75.95
2022-09-15T08:26:21.591Z,75.05
2022-09-15T08:27:21.565Z,75.15
2022-09-15T08:28:21.587Z,74.65
2022-09-15T08:29:21.535Z,75.25
2022-09-15T08:30:21.541Z,75.38
2022-09-15T08:31:21.608Z,75.09
2022-09-15T08:32:21.519Z,75.49
2022-09-15T08:33:21.512Z,76.29
2022-09-15T08:34:21.554Z,76.39
2022-09-15T08:35:21.476Z,75.68
2022-09-15T08:36:21.456Z,75.68
2022-09-15T08:37:21.475Z,75.38
2022-09-15T08:38:21.439Z,75.79
2022-09-15T08:39:21.424Z,75.89
2022-09-15T08:40:21.467Z,75.89
2022-09-15T08:41:21.397Z,75.59
2022-09-15T08:42:21.385Z,75.59
2022-09-15T08:43:21.393Z,75.59
2022-09-15T08:44:21.373Z,74.78
2022-09-15T08:45:21.354Z,74.88
2022-09-15T08:46:21.381Z,75.29
2022-09-15T08:47:21.323Z,75.38
2022-09-15T08:48:21.324Z,75.49
2022-09-15T08:49:40.946Z,75.79
2022-09-15T08:50:22.302Z,75.79
2022-09-15T08:51:21.355Z,76.09
2022-09-15T08:52:21.264Z,75.79
2022-09-15T08:53:21.273Z,75.38
2022-09-15T08:54:21.247Z,75.79
2022-09-15T08:55:21.234Z,75.99
2022-09-15T08:56:21.224Z,75.68
2022-09-15T08:57:21.213Z,75.89
2022-09-15T08:58:21.216Z,75.68
2022-09-15T08:59:21.183Z,75.38
2022-09-15T09:00:21.175Z,74.98
2022-09-15T09:01:21.251Z,75.09
2022-09-15T09:02:21.208Z,75.18
2022-09-15T09:03:21.143Z,75.29
2022-09-15T09:04:21.145Z,75.68
2022-09-15T09:05:21.113Z,75.99
2022-09-15T09:06:21.103Z,75.68
2022-09-15T09:07:21.095Z,74.88
2022-09-15T09:08:21.113Z,75.49
2022-09-15T09:09:21.076Z,75.89
2022-09-15T09:10:21.074Z,74.88
2022-09-15T09:11:21.047Z,75.49
2022-09-15T09:12:21.048Z,75.59
2022-09-15T09:13:21.035Z,75.29
2022-09-15T09:14:21.097Z,75.59
2022-09-15T09:15:21.004Z,75.35
2022-09-15T09:16:21.056Z,75.15
2022-09-15T09:17:21.017Z,74.78
2022-09-15T09:18:20.989Z,75.35
2022-09-15T09:19:20.973Z,75.75
2022-09-15T09:20:20.962Z,75.15
2022-09-15T09:21:20.967Z,74.85
2022-09-15T09:22:20.931Z,75.15
2022-09-15T09:23:20.923Z,75.15
2022-09-15T09:24:20.901Z,75.55
2022-09-15T09:25:27.605Z,74.44
2022-09-15T09:26:21.882Z,74.51
2022-09-15T09:27:20.869Z,74.61
2022-09-15T09:28:20.860Z,74.88
2022-09-15T09:29:20.932Z,73.97
2022-09-15T09:30:20.842Z,74.84
2022-09-15T09:31:20.859Z,73.20
2022-09-15T09:32:21.836Z,73.86
2022-09-15T09:33:20.793Z,72.27
2022-09-15T09:34:20.790Z,72.43
2022-09-15T09:35:20.791Z,72.50
2022-09-15T09:36:20.762Z,71.30
2022-09-15T09:37:20.762Z,71.16
2022-09-15T09:38:20.751Z,69.76
2022-09-15T09:39:20.730Z,70.32
2022-09-15T09:40:20.828Z,68.73
2022-09-15T09:41:20.701Z,68.73
2022-09-15T09:42:20.704Z,69.73
2022-09-15T09:43:20.689Z,68.32
2022-09-15T09:44:20.734Z,66.63
2022-09-15T09:45:20.661Z,68.26
2022-09-15T09:46:20.708Z,67.25
2022-09-15T09:47:20.675Z,67.16
2022-09-15T09:48:20.632Z,67.49
2022-09-15T09:49:20.633Z,68.39
2022-09-15T09:50:20.621Z,68.79
2022-09-15T09:51:20.643Z,69.59
2022-09-15T09:52:22.060Z,69.69
2022-09-15T09:53:20.575Z,69.29
2022-09-15T09:54:20.562Z,69.96
2022-09-15T09:55:20.557Z,69.06
2022-09-15T09:56:20.548Z,68.46
2022-09-15T09:57:20.522Z,68.26
2022-09-15T09:58:20.538Z,67.16
2022-09-15T09:59:20.501Z,68.09
2022-09-15T10:00:20.491Z,68.89
2022-09-15T10:01:20.584Z,68.99
2022-09-15T10:02:20.494Z,69.89
2022-09-15T10:03:20.479Z,69.96
2022-09-15T10:04:20.537Z,69.66
2022-09-15T10:05:20.439Z,68.46
2022-09-15T10:06:20.456Z,67.86
2022-09-15T10:07:20.409Z,67.19
2022-09-15T10:08:20.416Z,67.19
2022-09-15T10:09:20.410Z,67.09
2022-09-15T10:10:20.385Z,68.09
2022-09-15T10:11:20.366Z,68.29
2022-09-15T10:12:20.361Z,69.29
2022-09-15T10:13:20.351Z,69.29
2022-09-15T10:14:20.340Z,70.09
2022-09-15T10:15:20.330Z,69.79
2022-09-15T10:16:20.359Z,69.39
2022-09-15T10:17:20.300Z,69.29
2022-09-15T10:18:20.289Z,68.73
2022-09-15T10:19:20.286Z,69.23
2022-09-15T10:20:20.346Z,69.66
2022-09-15T10:21:20.255Z,69.76
2022-09-15T10:22:20.250Z,69.76
2022-09-15T10:23:20.268Z,69.96
2022-09-15T10:24:20.231Z,70.59
2022-09-15T10:25:20.209Z,70.79
2022-09-15T10:26:20.208Z,71.00
2022-09-15T10:27:20.177Z,71.30
2022-09-15T10:28:20.209Z,71.59
2022-09-15T10:29:20.178Z,71.80
2022-09-15T10:30:20.166Z,72.20
2022-09-15T10:31:20.198Z,72.20
2022-09-15T10:32:24.843Z,72.40
2022-09-15T10:33:21.121Z,72.30
2022-09-15T10:34:20.108Z,72.60
2022-09-15T10:35:20.102Z,72.06
2022-09-15T10:36:20.113Z,72.97
2022-09-15T10:37:20.081Z,71.63
2022-09-15T10:38:20.059Z,71.73
2022-09-15T10:39:20.050Z,71.39
2022-09-15T10:40:20.218Z,70.53
2022-09-15T10:41:20.048Z,70.53
2022-09-15T10:42:20.019Z,70.12
2022-09-15T10:43:20.009Z,70.23
2022-09-15T10:44:19.989Z,71.23
2022-09-15T10:45:20.017Z,70.96
2022-09-15T10:46:20.049Z,71.63
2022-09-15T10:47:19.970Z,71.43
2022-09-15T10:48:19.968Z,71.53
2022-09-15T10:49:19.948Z,72.03
2022-09-15T10:50:19.928Z,71.83
2022-09-15T10:51:19.917Z,71.39
2022-09-15T10:52:19.919Z,71.39
2022-09-15T10:53:19.899Z,70.39
2022-09-15T10:54:19.919Z,70.73
2022-09-15T10:55:27.766Z,71.33
2022-09-15T10:56:20.857Z,70.53
2022-09-15T10:57:19.912Z,71.53
2022-09-15T10:58:19.842Z,71.23
2022-09-15T10:59:19.822Z,70.83
2022-09-15T11:00:19.806Z,70.83
2022-09-15T11:01:19.853Z,71.23
2022-09-15T11:02:19.868Z,71.73
2022-09-15T11:03:19.786Z,71.53
2022-09-15T11:04:19.767Z,71.59
2022-09-15T11:05:22.615Z,71.09
2022-09-15T11:06:19.745Z,71.09
2022-09-15T11:07:19.751Z,71.09
2022-09-15T11:08:19.716Z,70.69
2022-09-15T11:09:19.716Z,70.50
2022-09-15T11:10:19.712Z,70.89
2022-09-15T11:11:19.687Z,71.19
2022-09-15T11:12:19.687Z,71.19
2022-09-15T11:13:19.677Z,70.79
2022-09-15T11:14:19.663Z,70.89
2022-09-15T11:15:19.647Z,71.80
2022-09-15T11:16:19.678Z,70.59
2022-09-15T11:17:19.623Z,70.19
2022-09-15T11:18:19.618Z,69.99
2022-09-15T11:19:19.597Z,70.50
2022-09-15T11:20:19.595Z,70.29
2022-09-15T11:21:19.576Z,70.29
2022-09-15T11:22:19.575Z,69.19
2022-09-15T11:23:19.576Z,69.29
2022-09-15T11:24:19.538Z,69.19
2022-09-15T11:25:19.533Z,68.79
2022-09-15T11:26:19.534Z,68.59
2022-09-15T11:27:19.516Z,69.09
2022-09-15T11:28:19.520Z,69.49
2022-09-15T11:29:19.476Z,69.32
2022-09-15T11:30:19.502Z,69.23
2022-09-15T11:31:19.538Z,69.02
2022-09-15T11:32:19.486Z,69.06
2022-09-15T11:33:19.456Z,69.46
2022-09-15T11:34:19.426Z,70.36
2022-09-15T11:35:19.415Z,69.86
2022-09-15T11:36:19.406Z,69.66
2022-09-15T11:37:19.406Z,70.56
2022-09-15T11:38:19.389Z,70.56
2022-09-15T11:39:19.369Z,70.16
2022-09-15T11:40:19.450Z,70.56
2022-09-15T11:41:19.344Z,70.66
2022-09-15T11:42:19.435Z,70.56
2022-09-15T11:43:19.336Z,70.50
2022-09-15T11:44:19.315Z,70.50
2022-09-15T11:45:19.320Z,70.39
2022-09-15T11:46:19.354Z,70.50
2022-09-15T11:47:19.286Z,70.26
2022-09-15T11:48:19.265Z,70.16
2022-09-15T11:49:19.253Z,71.06
2022-09-15T11:50:19.244Z,71.66
2022-09-15T11:51:19.235Z,70.76
2022-09-15T11:52:19.238Z,70.66
2022-09-15T11:53:19.204Z,70.76
2022-09-15T11:54:19.224Z,71.56
2022-09-15T11:55:19.199Z,73.20
2022-09-15T11:56:19.175Z,75.04
2022-09-15T11:57:19.221Z,76.68
2022-09-15T11:58:22.091Z,78.27
2022-09-15T11:59:19.137Z,79.91
2022-09-15T12:00:19.192Z,80.91
2022-09-15T12:01:19.114Z,81.96
2022-09-15T12:02:19.250Z,82.26
2022-09-15T12:03:19.170Z,83.06
2022-09-15T12:04:19.094Z,82.86
2022-09-15T12:05:19.529Z,82.66
2022-09-15T12:06:19.063Z,82.76
2022-09-15T12:07:19.046Z,82.76
2022-09-15T12:08:19.054Z,83.06
2022-09-15T12:09:19.023Z,82.62
2022-09-15T12:10:19.027Z,81.32
2022-09-15T12:11:19.013Z,81.68
2022-09-15T12:12:19.041Z,81.98
2022-09-15T12:13:18.996Z,82.28
2022-09-15T12:14:18.977Z,81.38
2022-09-15T12:15:18.964Z,81.27
2022-09-15T12:16:18.970Z,80.88
2022-09-15T12:17:18.934Z,81.07
2022-09-15T12:18:37.155Z,79.97
2022-09-15T12:19:19.916Z,79.93
2022-09-15T12:20:18.902Z,78.93
2022-09-15T12:21:18.892Z,78.69
2022-09-15T12:22:18.881Z,78.99
2022-09-15T12:23:18.863Z,76.78
2022-09-15T12:24:18.874Z,76.58
2022-09-15T12:25:18.843Z,76.89
2022-09-15T12:26:18.835Z,76.68
2022-09-15T12:27:18.815Z,75.98
2022-09-15T12:28:18.866Z,76.38
2022-09-15T12:29:18.809Z,76.48
2022-09-15T12:30:18.792Z,77.05
2022-09-15T12:31:18.876Z,76.34
2022-09-15T12:32:18.772Z,75.64
2022-09-15T12:33:18.752Z,75.21
2022-09-15T12:34:18.774Z,74.20
2022-09-15T12:35:18.733Z,73.50
2022-09-15T12:36:18.725Z,73.94
2022-09-15T12:37:18.703Z,73.33
2022-09-15T12:38:18.693Z,72.53
2022-09-15T12:39:18.695Z,72.43
2022-09-15T12:40:18.709Z,73.40
2022-09-15T12:41:18.672Z,73.00
2022-09-15T12:42:18.659Z,73.10
2022-09-15T12:43:18.635Z,72.80
2022-09-15T12:44:18.633Z,72.80
2022-09-15T12:45:18.622Z,73.13
2022-09-15T12:46:18.705Z,72.53
2022-09-15T12:47:18.593Z,72.53
2022-09-15T12:48:18.586Z,72.13
2022-09-15T12:49:18.581Z,73.07
2022-09-15T12:50:18.559Z,72.67
2022-09-15T12:51:18.748Z,72.47
2022-09-15T12:52:18.542Z,72.97